Time;durP1;ratioP1;P1;durP2;ratioP2;P2;SDS_P1;SDS_P2;PMS_P1;PMS_P2;Temp;Humidity;BMP_temperature;BMP_pressure;BME280_temperature;BME280_humidity;BME280_pressure;Samples;Min_cycle;Max_cycle;Signal;HPM_P1;HPM_P2
2021/08/19 00:02:11;;;;;;;10.05;8.57;;;16.30;99.90;;;;;;5068382;28;20063;-70
2021/08/19 00:04:37;;;;;;;10.63;8.18;;;16.30;99.90;;;;;;5067198;28;20040;-70
2021/08/19 00:07:03;;;;;;;11.93;8.50;;;16.20;99.90;;;;;;5078945;28;20044;-70
2021/08/19 00:09:31;;;;;;;9.65;8.60;;;16.20;99.90;;;;;;5085467;28;20052;-70
2021/08/19 00:11:58;;;;;;;13.68;9.07;;;16.30;99.90;;;;;;5075200;28;20049;-70
2021/08/19 00:14:24;;;;;;;10.77;8.52;;;16.30;99.90;;;;;;5069872;28;20045;-70
2021/08/19 00:16:50;;;;;;;12.23;9.10;;;16.20;99.90;;;;;;5076263;28;20340;-70
2021/08/19 00:19:15;;;;;;;8.82;7.90;;;16.20;99.90;;;;;;5074284;28;20048;-70
2021/08/19 00:21:41;;;;;;;10.48;8.05;;;16.20;99.90;;;;;;5066092;28;20044;-70
2021/08/19 00:24:07;;;;;;;12.02;8.73;;;16.20;99.90;;;;;;5067128;28;20040;-70
2021/08/19 00:26:34;;;;;;;11.50;8.95;;;16.20;99.90;;;;;;5067123;28;20056;-69
2021/08/19 00:29:00;;;;;;;12.30;8.85;;;16.20;99.90;;;;;;5067068;28;20045;-70
2021/08/19 00:31:26;;;;;;;11.45;7.53;;;16.20;99.90;;;;;;5067766;28;20053;-69
2021/08/19 00:33:52;;;;;;;9.45;8.45;;;16.30;99.90;;;;;;5066406;28;20045;-69
2021/08/19 00:36:19;;;;;;;10.50;8.00;;;16.30;99.90;;;;;;5065137;28;20045;-70
2021/08/19 00:38:46;;;;;;;11.52;8.52;;;16.20;99.90;;;;;;5067097;28;20102;-69
2021/08/19 00:41:12;;;;;;;10.02;8.15;;;16.20;99.90;;;;;;5066231;28;20140;-70
2021/08/19 00:43:39;;;;;;;8.90;7.63;;;16.30;99.90;;;;;;5066984;28;20041;-70
2021/08/19 00:46:31;;;;;;;11.30;8.27;;;16.20;99.90;;;;;;5075500;28;20096;-70
2021/08/19 00:49:02;;;;;;;9.70;7.90;;;16.20;99.90;;;;;;5067143;28;20546;-70
2021/08/19 00:51:36;;;;;;;9.20;7.05;;;16.20;99.90;;;;;;5067492;28;20045;-69
2021/08/19 00:54:08;;;;;;;13.13;7.65;;;16.30;99.90;;;;;;5067671;28;20091;-70
2021/08/19 00:56:38;;;;;;;13.57;7.50;;;16.30;99.90;;;;;;5066876;28;20056;-71
2021/08/19 00:59:04;;;;;;;;;;;16.30;99.90;;;;;;5066353;28;20071;-70
2021/08/19 01:01:32;;;;;;;11.95;7.00;;;16.30;99.90;;;;;;5073795;28;19931;-71
2021/08/19 01:03:58;;;;;;;12.27;8.55;;;16.30;99.90;;;;;;5066312;28;20055;-70
2021/08/19 01:06:24;;;;;;;9.38;6.57;;;16.30;99.90;;;;;;5066659;28;20071;-70
2021/08/19 01:08:52;;;;;;;12.98;7.80;;;16.30;99.90;;;;;;5066660;28;20044;-71
2021/08/19 01:11:19;;;;;;;9.82;7.00;;;16.20;99.90;;;;;;5065863;28;20049;-70
2021/08/19 01:13:46;;;;;;;11.30;6.03;;;16.20;99.90;;;;;;5065464;28;20092;-70
2021/08/19 01:16:13;;;;;;;9.73;6.80;;;16.20;99.90;;;;;;5069634;28;20055;-70
2021/08/19 01:18:41;;;;;;;8.25;6.00;;;16.10;99.90;;;;;;5077530;28;20183;-71
2021/08/19 01:21:10;;;;;;;12.35;6.68;;;16.20;99.90;;;;;;5072295;28;20053;-71
2021/08/19 01:23:36;;;;;;;9.85;6.10;;;16.20;99.90;;;;;;5077574;28;20105;-71
2021/08/19 01:26:28;;;;;;;7.75;6.20;;;16.20;99.90;;;;;;5065788;28;20051;-70
2021/08/19 01:28:55;;;;;;;8.90;6.32;;;16.20;99.90;;;;;;5063448;28;20053;-70
2021/08/19 01:31:24;;;;;;;9.55;6.65;;;16.20;99.90;;;;;;5069739;28;20570;-70
2021/08/19 01:33:51;;;;;;;10.15;6.38;;;16.20;99.90;;;;;;5063993;28;20041;-70
2021/08/19 01:36:17;;;;;;;8.23;6.57;;;16.20;99.90;;;;;;5065791;28;20041;-71
2021/08/19 01:38:44;;;;;;;8.30;6.85;;;16.20;99.90;;;;;;5064630;28;20461;-70
2021/08/19 01:41:10;;;;;;;8.40;6.53;;;16.20;99.90;;;;;;5064967;28;20052;-71
2021/08/19 01:43:38;;;;;;;7.65;5.30;;;16.20;99.90;;;;;;5066338;28;20598;-71
2021/08/19 01:46:08;;;;;;;7.75;6.30;;;16.20;99.90;;;;;;5080074;28;20041;-70
2021/08/19 01:48:35;;;;;;;10.35;6.40;;;16.20;99.90;;;;;;5081398;28;20045;-70
2021/08/19 01:51:02;;;;;;;8.93;6.22;;;16.20;99.90;;;;;;5063910;28;20049;-71
2021/08/19 01:53:28;;;;;;;8.35;6.22;;;16.10;99.90;;;;;;5064793;28;20048;-70
2021/08/19 01:55:54;;;;;;;8.82;6.13;;;16.10;99.90;;;;;;5064770;28;20045;-70
2021/08/19 01:58:21;;;;;;;7.55;6.32;;;16.10;99.90;;;;;;5064731;28;20048;-71
2021/08/19 02:00:48;;;;;;;8.48;6.28;;;16.10;99.90;;;;;;5067745;28;20045;-71
2021/08/19 02:03:14;;;;;;;6.95;5.90;;;16.10;99.90;;;;;;5073885;28;20100;-70
2021/08/19 02:05:40;;;;;;;9.75;6.30;;;16.10;99.90;;;;;;5065933;28;20307;-70
2021/08/19 02:08:07;;;;;;;9.30;5.80;;;16.10;99.90;;;;;;5065983;28;20045;-70
2021/08/19 02:10:34;;;;;;;7.80;6.40;;;16.10;99.90;;;;;;5078702;28;20061;-71
2021/08/19 02:13:00;;;;;;;8.32;6.32;;;16.10;99.90;;;;;;5074166;28;20352;-71
2021/08/19 02:15:26;;;;;;;7.90;5.80;;;16.10;99.90;;;;;;5083174;28;20406;-70
2021/08/19 02:17:52;;;;;;;7.05;5.88;;;16.10;99.90;;;;;;5084564;28;20040;-71
2021/08/19 02:20:18;;;;;;;6.68;6.00;;;16.10;99.90;;;;;;5081395;28;20071;-71
2021/08/19 02:22:47;;;;;;;8.27;6.15;;;16.10;99.90;;;;;;5046578;28;20087;-71
2021/08/19 02:25:14;;;;;;;7.85;7.05;;;16.10;99.90;;;;;;5063600;28;20044;-71
2021/08/19 02:27:40;;;;;;;9.02;6.80;;;16.10;99.90;;;;;;5065262;28;20190;-71
2021/08/19 02:30:07;;;;;;;9.95;6.60;;;16.10;99.90;;;;;;5066994;28;20040;-71
2021/08/19 02:32:33;;;;;;;10.18;6.45;;;16.10;99.90;;;;;;5076047;28;20041;-70
2021/08/19 02:34:59;;;;;;;7.80;6.70;;;16.10;99.90;;;;;;5064272;28;20412;-71
2021/08/19 02:37:27;;;;;;;8.57;6.30;;;16.10;99.90;;;;;;5064279;28;20571;-71
2021/08/19 02:39:53;;;;;;;10.88;7.10;;;16.20;99.90;;;;;;5065804;28;20049;-70
2021/08/19 02:42:19;;;;;;;8.75;6.70;;;16.20;99.90;;;;;;5064367;28;20055;-71
2021/08/19 02:44:45;;;;;;;8.15;6.30;;;16.20;99.90;;;;;;5062724;28;20053;-71
2021/08/19 02:47:11;;;;;;;8.60;7.15;;;16.20;99.90;;;;;;5064092;28;20049;-70
2021/08/19 02:49:37;;;;;;;9.13;7.63;;;16.20;99.90;;;;;;5064516;28;20476;-71
2021/08/19 02:52:03;;;;;;;9.07;6.70;;;16.20;99.90;;;;;;5071480;28;20458;-70
2021/08/19 02:54:29;;;;;;;11.10;6.90;;;16.20;99.90;;;;;;5070160;28;20056;-70
2021/08/19 02:56:54;;;;;;;10.07;7.40;;;16.20;99.90;;;;;;5063947;28;20037;-71
2021/08/19 02:59:20;;;;;;;12.10;7.82;;;16.10;99.90;;;;;;5062100;28;20049;-71
2021/08/19 03:01:46;;;;;;;11.50;7.47;;;16.10;99.90;;;;;;5066443;28;20484;-71
2021/08/19 03:04:12;;;;;;;12.15;8.05;;;16.00;99.90;;;;;;5064038;28;20060;-70
2021/08/19 03:06:38;;;;;;;11.65;7.70;;;16.00;99.90;;;;;;5063737;28;20048;-71
2021/08/19 03:09:03;;;;;;;9.63;8.63;;;16.00;99.90;;;;;;5062484;28;20044;-70
2021/08/19 03:11:29;;;;;;;11.68;7.90;;;16.00;99.90;;;;;;5064202;28;20090;-70
2021/08/19 03:13:55;;;;;;;10.98;8.60;;;16.00;99.90;;;;;;5063970;28;20419;-70
2021/08/19 03:16:21;;;;;;;10.02;8.98;;;16.00;99.90;;;;;;5062637;28;20052;-68
2021/08/19 03:18:47;;;;;;;13.13;10.38;;;16.00;99.90;;;;;;5075109;28;20044;-70
2021/08/19 03:21:13;;;;;;;13.05;9.57;;;16.00;99.90;;;;;;5063790;28;20037;-70
2021/08/19 03:23:39;;;;;;;14.05;9.10;;;16.00;99.90;;;;;;5063838;28;20075;-70
2021/08/19 03:26:06;;;;;;;11.05;9.65;;;16.00;99.90;;;;;;5065468;28;20060;-71
2021/08/19 03:28:32;;;;;;;11.10;10.00;;;16.00;99.90;;;;;;5064912;28;20560;-70
2021/08/19 03:30:58;;;;;;;11.40;9.05;;;16.00;99.90;;;;;;5068577;28;20041;-70
2021/08/19 03:33:27;;;;;;;9.98;8.90;;;16.00;99.90;;;;;;5064652;28;20048;-71
2021/08/19 03:35:53;;;;;;;10.70;8.88;;;16.00;99.90;;;;;;5078202;28;20071;-70
2021/08/19 03:38:19;;;;;;;12.13;10.10;;;16.00;99.90;;;;;;5073688;28;20044;-70
2021/08/19 03:40:45;;;;;;;12.15;9.43;;;16.00;99.90;;;;;;5067541;28;20048;-70
2021/08/19 03:43:12;;;;;;;11.35;10.15;;;16.00;99.90;;;;;;5063570;28;20092;-70
2021/08/19 03:45:38;;;;;;;12.05;10.20;;;16.00;99.90;;;;;;5063207;28;20057;-70
2021/08/19 03:48:04;;;;;;;12.48;9.50;;;16.00;99.90;;;;;;5063173;28;20052;-70
2021/08/19 03:50:30;;;;;;;11.57;9.57;;;16.00;99.90;;;;;;5077239;28;20413;-71
2021/08/19 03:52:56;;;;;;;10.88;9.00;;;16.00;99.90;;;;;;5064376;28;20060;-69
2021/08/19 03:55:22;;;;;;;11.68;9.70;;;16.00;99.90;;;;;;5064997;28;20041;-69
2021/08/19 03:57:48;;;;;;;13.93;11.55;;;16.00;99.90;;;;;;5067463;28;20055;-69
2021/08/19 04:00:14;;;;;;;13.48;10.95;;;16.00;99.90;;;;;;5067297;28;20072;-69
2021/08/19 04:02:41;;;;;;;12.82;11.30;;;16.00;99.90;;;;;;5084276;28;20044;-69
2021/08/19 04:05:07;;;;;;;15.60;13.32;;;16.00;99.90;;;;;;5072778;28;20067;-69
2021/08/19 04:07:33;;;;;;;16.35;14.18;;;15.90;99.90;;;;;;5068213;28;20061;-69
2021/08/19 04:09:59;;;;;;;16.48;14.57;;;15.90;99.90;;;;;;5098306;28;20048;-69
2021/08/19 04:12:25;;;;;;;17.35;15.27;;;15.90;99.90;;;;;;5079561;28;20567;-69
2021/08/19 04:14:50;;;;;;;17.15;15.10;;;15.90;99.90;;;;;;5072974;28;20064;-69
2021/08/19 04:17:16;;;;;;;18.88;16.33;;;15.90;99.90;;;;;;5069462;28;20053;-69
2021/08/19 04:19:42;;;;;;;19.75;17.25;;;15.90;99.90;;;;;;5072516;28;20037;-69
2021/08/19 04:22:11;;;;;;;21.35;18.02;;;15.90;99.90;;;;;;5073309;28;20044;-69
2021/08/19 04:24:37;;;;;;;19.88;17.73;;;15.90;99.90;;;;;;5073341;28;20048;-69
2021/08/19 04:27:04;;;;;;;20.73;17.80;;;15.90;99.90;;;;;;5066633;28;20044;-69
2021/08/19 04:29:33;;;;;;;20.73;18.50;;;15.90;99.90;;;;;;5067222;28;20056;-69
2021/08/19 04:32:00;;;;;;;20.13;17.30;;;15.90;99.90;;;;;;5099103;28;20048;-69
2021/08/19 04:34:27;;;;;;;21.65;18.38;;;15.90;99.90;;;;;;5080196;28;20370;-69
2021/08/19 04:36:53;;;;;;;19.48;17.48;;;16.00;99.90;;;;;;5066892;28;20116;-69
2021/08/19 04:39:19;;;;;;;21.35;19.17;;;15.90;99.90;;;;;;5066919;28;20049;-69
2021/08/19 04:41:46;;;;;;;21.05;18.77;;;16.00;99.90;;;;;;5067131;28;20037;-70
2021/08/19 04:44:12;;;;;;;23.02;18.83;;;16.00;99.90;;;;;;5095847;28;20068;-69
2021/08/19 04:46:37;;;;;;;20.95;18.05;;;16.00;99.90;;;;;;5066535;28;20048;-66
2021/08/19 04:49:05;;;;;;;20.85;18.63;;;16.00;99.90;;;;;;5076359;28;20555;-67
2021/08/19 04:51:37;;;;;;;22.85;20.02;;;16.00;99.90;;;;;;5073261;28;20040;-66
2021/08/19 04:54:05;;;;;;;21.48;19.13;;;16.00;99.90;;;;;;5082722;28;20120;-66
2021/08/19 04:56:36;;;;;;;23.15;18.48;;;16.00;99.90;;;;;;5083641;28;20044;-67
2021/08/19 04:59:04;;;;;;;21.88;19.00;;;16.00;99.90;;;;;;5086078;28;20044;-67
2021/08/19 05:01:32;;;;;;;23.70;18.87;;;16.00;99.90;;;;;;5078527;28;20112;-67
2021/08/19 05:03:59;;;;;;;21.52;18.20;;;16.00;99.90;;;;;;5085125;28;20696;-67
2021/08/19 05:06:29;;;;;;;21.40;18.63;;;16.00;99.90;;;;;;5084955;28;20090;-67
2021/08/19 05:08:56;;;;;;;24.73;19.48;;;16.10;99.90;;;;;;5087009;28;20068;-66
2021/08/19 05:11:23;;;;;;;22.83;20.00;;;16.10;99.90;;;;;;5085526;28;20044;-66
2021/08/19 05:13:50;;;;;;;22.75;19.88;;;16.10;99.90;;;;;;5081724;28;20052;-68
2021/08/19 05:16:18;;;;;;;23.42;20.83;;;16.10;99.90;;;;;;5065203;28;20119;-66
2021/08/19 05:18:44;;;;;;;25.40;20.00;;;16.10;99.90;;;;;;5083467;28;20036;-66
2021/08/19 05:21:13;;;;;;;24.85;20.23;;;16.10;99.90;;;;;;5084084;28;20070;-66
2021/08/19 05:23:40;;;;;;;22.67;19.80;;;16.10;99.90;;;;;;5082282;28;20044;-66
2021/08/19 05:26:06;;;;;;;25.75;20.35;;;16.20;99.90;;;;;;5082903;28;20565;-66
2021/08/19 05:28:33;;;;;;;23.15;20.63;;;16.20;99.90;;;;;;5084788;28;20607;-67
2021/08/19 05:30:59;;;;;;;22.80;20.20;;;16.20;99.90;;;;;;5085040;28;20045;-67
2021/08/19 05:33:25;;;;;;;22.75;19.85;;;16.20;99.90;;;;;;5083133;28;20041;-66
2021/08/19 05:35:50;;;;;;;26.13;21.58;;;16.20;99.90;;;;;;5083031;28;20055;-67
2021/08/19 05:38:17;;;;;;;24.08;20.83;;;16.20;99.90;;;;;;5083482;28;20068;-68
2021/08/19 05:40:48;;;;;;;24.85;21.23;;;16.20;99.90;;;;;;5083616;28;20555;-68
2021/08/19 05:43:14;;;;;;;25.20;22.02;;;16.30;99.90;;;;;;5084919;28;20041;-69
2021/08/19 05:45:42;;;;;;;26.05;22.45;;;16.20;99.90;;;;;;5082688;28;20248;-69
2021/08/19 05:48:08;;;;;;;28.35;22.73;;;16.20;99.90;;;;;;5084972;28;20045;-68
2021/08/19 05:50:34;;;;;;;26.98;22.60;;;16.20;99.90;;;;;;5081703;28;20045;-75
2021/08/19 05:53:01;;;;;;;27.52;22.05;;;16.20;99.90;;;;;;5083955;28;20044;-69
2021/08/19 05:55:29;;;;;;;25.05;21.40;;;16.20;99.90;;;;;;5062808;28;20051;-69
2021/08/19 05:57:54;;;;;;;26.73;21.55;;;16.20;99.90;;;;;;5083127;28;20052;-68
2021/08/19 06:00:21;;;;;;;24.80;21.40;;;16.20;99.90;;;;;;5077487;28;20139;-69
2021/08/19 06:02:51;;;;;;;24.90;21.67;;;16.20;99.90;;;;;;5077330;28;20048;-69
2021/08/19 06:05:17;;;;;;;23.27;20.63;;;16.20;99.90;;;;;;5085288;28;20037;-68
2021/08/19 06:07:45;;;;;;;24.65;21.27;;;16.20;99.90;;;;;;5071298;28;20041;-69
2021/08/19 06:10:12;;;;;;;24.20;21.60;;;16.30;99.90;;;;;;5092320;28;20059;-69
2021/08/19 06:12:41;;;;;;;26.60;20.13;;;16.20;99.90;;;;;;5072416;28;20040;-69
2021/08/19 06:15:08;;;;;;;24.23;20.80;;;16.20;99.90;;;;;;5082972;28;20058;-69
2021/08/19 06:17:36;;;;;;;23.17;20.67;;;16.30;99.90;;;;;;5072214;28;20051;-68
2021/08/19 06:20:07;;;;;;;25.08;21.92;;;16.30;99.90;;;;;;5061038;28;20067;-67
2021/08/19 06:22:43;;;;;;;25.92;21.67;;;16.30;99.90;;;;;;5067631;28;20040;-67
2021/08/19 06:25:09;;;;;;;26.85;22.05;;;16.30;99.90;;;;;;5068483;28;20062;-67
2021/08/19 06:27:36;;;;;;;27.92;21.27;;;16.30;99.90;;;;;;5068101;28;20056;-67
2021/08/19 06:30:04;;;;;;;27.60;21.88;;;16.30;99.90;;;;;;5092897;28;20044;-67
2021/08/19 06:32:36;;;;;;;27.38;21.70;;;16.30;99.90;;;;;;5070694;28;20048;-67
2021/08/19 06:35:03;;;;;;;26.17;21.40;;;16.30;99.90;;;;;;5084766;28;20048;-67
2021/08/19 06:37:35;;;;;;;23.48;20.95;;;16.30;99.90;;;;;;5061223;28;20550;-68
2021/08/19 06:40:06;;;;;;;24.40;21.10;;;16.30;99.90;;;;;;5078067;28;20101;-68
2021/08/19 06:42:32;;;;;;;26.85;21.58;;;16.30;99.90;;;;;;5067493;28;20040;-68
2021/08/19 06:44:58;;;;;;;27.27;22.38;;;16.30;99.90;;;;;;5065423;28;20047;-71
2021/08/19 06:47:24;;;;;;;23.77;20.92;;;16.30;99.90;;;;;;5079563;28;20032;-68
2021/08/19 06:49:49;;;;;;;27.30;21.13;;;16.40;99.90;;;;;;5069622;28;20570;-68
2021/08/19 06:52:15;;;;;;;23.55;20.50;;;16.40;99.90;;;;;;5080514;28;20040;-68
2021/08/19 06:54:41;;;;;;;27.15;21.42;;;16.40;99.90;;;;;;5086056;28;20043;-67
2021/08/19 06:57:07;;;;;;;29.10;22.58;;;16.50;99.90;;;;;;5076248;28;20044;-68
2021/08/19 06:59:33;;;;;;;28.73;21.65;;;16.50;99.90;;;;;;5071145;28;20107;-68
2021/08/19 07:01:59;;;;;;;26.73;20.38;;;16.40;99.90;;;;;;5058155;28;20361;-67
2021/08/19 07:04:24;;;;;;;25.67;19.95;;;16.40;99.90;;;;;;5064479;28;20060;-68
2021/08/19 07:06:53;;;;;;;27.20;20.85;;;16.30;99.90;;;;;;5072567;28;20056;-68
2021/08/19 07:09:19;;;;;;;29.05;21.63;;;16.30;99.90;;;;;;5073694;28;20059;-68
2021/08/19 07:11:45;;;;;;;27.00;20.25;;;16.30;99.90;;;;;;5062438;28;20041;-68
2021/08/19 07:14:11;;;;;;;26.15;20.25;;;16.30;99.90;;;;;;5058121;28;20048;-69
2021/08/19 07:16:38;;;;;;;25.67;20.15;;;16.30;99.90;;;;;;5041745;28;20079;-68
2021/08/19 07:19:05;;;;;;;26.52;20.35;;;16.40;99.90;;;;;;5057007;28;20066;-68
2021/08/19 07:21:30;;;;;;;25.63;20.13;;;16.40;99.90;;;;;;5064819;28;20041;-69
2021/08/19 07:23:56;;;;;;;25.45;19.05;;;16.50;99.90;;;;;;5053310;28;20106;-68
2021/08/19 07:26:23;;;;;;;21.45;16.92;;;16.50;99.90;;;;;;5074026;28;20048;-68
2021/08/19 07:28:57;;;;;;;23.60;18.95;;;16.60;99.90;;;;;;5074420;28;20052;-69
2021/08/19 07:31:23;;;;;;;20.15;17.48;;;16.60;99.90;;;;;;5091212;28;20097;-68
2021/08/19 07:33:49;;;;;;;21.77;16.40;;;16.60;99.90;;;;;;5078019;28;20058;-69
2021/08/19 07:36:15;;;;;;;19.75;16.35;;;16.70;99.90;;;;;;5092992;28;20894;-68
2021/08/19 07:38:41;;;;;;;18.65;14.50;;;16.70;99.90;;;;;;5075140;28;20044;-68
2021/08/19 07:41:08;;;;;;;16.92;14.30;;;16.80;99.90;;;;;;5091098;28;20053;-68
2021/08/19 07:43:34;;;;;;;19.83;15.45;;;16.80;99.90;;;;;;5073189;28;20439;-68
2021/08/19 07:46:00;;;;;;;21.80;15.20;;;16.90;99.90;;;;;;5084961;28;20072;-68
2021/08/19 07:48:26;;;;;;;16.63;14.52;;;16.90;99.90;;;;;;5068190;28;20048;-68
2021/08/19 07:50:52;;;;;;;17.25;14.70;;;16.90;99.90;;;;;;5085305;28;20048;-68
2021/08/19 07:53:18;;;;;;;17.98;14.77;;;16.90;99.90;;;;;;5068531;28;20048;-68
2021/08/19 07:55:44;;;;;;;16.23;14.30;;;16.90;99.90;;;;;;5080180;28;20045;-68
2021/08/19 07:58:11;;;;;;;15.20;13.48;;;16.90;99.90;;;;;;5081839;28;20550;-68
2021/08/19 08:00:37;;;;;;;14.38;12.60;;;16.80;99.90;;;;;;5079538;28;20071;-68
2021/08/19 08:03:03;;;;;;;16.00;13.15;;;16.90;99.90;;;;;;5084554;28;20041;-68
2021/08/19 08:05:31;;;;;;;16.05;14.32;;;16.80;99.90;;;;;;5074706;28;20056;-70
2021/08/19 08:08:12;;;;;;;18.00;13.82;;;16.80;99.90;;;;;;5075813;28;20044;-70
2021/08/19 08:10:41;;;;;;;14.77;11.75;;;16.80;99.90;;;;;;5070931;28;20103;-71
2021/08/19 08:13:08;;;;;;;11.38;10.25;;;16.90;99.90;;;;;;5078305;28;20471;-68
2021/08/19 08:15:35;;;;;;;10.23;9.18;;;17.00;99.90;;;;;;5061732;28;20049;-69
2021/08/19 08:18:01;;;;;;;11.68;10.20;;;16.90;99.90;;;;;;5079393;28;20044;-70
2021/08/19 08:20:27;;;;;;;11.40;10.15;;;16.90;99.90;;;;;;5074433;28;20048;-69
2021/08/19 08:22:53;;;;;;;12.00;9.93;;;16.80;99.90;;;;;;5075296;28;20040;-66
2021/08/19 08:25:20;;;;;;;12.68;10.15;;;16.80;99.90;;;;;;5063499;28;20045;-69
2021/08/19 08:28:05;;;;;;;12.10;10.63;;;16.80;99.90;;;;;;5080195;28;20087;-70
2021/08/19 08:30:32;;;;;;;11.40;10.20;;;16.90;99.90;;;;;;5072839;28;20125;-70
2021/08/19 08:32:59;;;;;;;9.93;8.80;;;16.90;99.90;;;;;;5082160;28;20056;-70
2021/08/19 08:35:24;;;;;;;11.57;10.18;;;16.90;99.90;;;;;;5084901;28;20195;-70
2021/08/19 08:37:50;;;;;;;12.85;11.00;;;16.90;99.90;;;;;;5080631;28;20066;-70
2021/08/19 08:40:18;;;;;;;13.05;10.68;;;16.90;99.90;;;;;;5083865;28;20060;-71
2021/08/19 08:42:45;;;;;;;12.35;11.05;;;16.90;99.90;;;;;;5079270;28;20040;-70
2021/08/19 08:45:12;;;;;;;14.27;11.63;;;17.00;99.90;;;;;;5066957;28;20048;-70
2021/08/19 08:47:39;;;;;;;12.40;10.55;;;16.90;99.90;;;;;;5077864;28;20552;-72
2021/08/19 08:50:07;;;;;;;13.27;11.45;;;17.00;99.90;;;;;;5079776;28;20048;-76
2021/08/19 08:52:36;;;;;;;14.15;12.65;;;17.00;99.90;;;;;;5075540;28;20060;-76
2021/08/19 08:55:04;;;;;;;13.00;11.20;;;17.00;99.90;;;;;;5083547;28;20439;-71
2021/08/19 08:57:34;;;;;;;13.55;11.00;;;17.00;99.90;;;;;;5084831;28;20044;-75
2021/08/19 08:59:59;;;;;;;13.75;11.35;;;17.00;99.90;;;;;;5073531;28;20055;-76
2021/08/19 09:02:25;;;;;;;13.43;11.95;;;17.10;99.90;;;;;;5077396;28;20062;-75
2021/08/19 09:05:13;;;;;;;13.50;10.57;;;17.20;99.90;;;;;;5072130;28;20052;-74
2021/08/19 09:07:39;;;;;;;12.07;10.40;;;17.20;99.90;;;;;;5072540;28;20245;-74
2021/08/19 09:10:05;;;;;;;12.30;10.50;;;17.20;99.90;;;;;;5062794;28;20049;-75
2021/08/19 09:12:39;;;;;;;13.75;10.57;;;17.20;99.90;;;;;;5067381;28;20631;-75
2021/08/19 09:15:17;;;;;;;11.15;9.70;;;17.30;99.90;;;;;;5051944;28;20090;-73
2021/08/19 09:17:45;;;;;;;13.85;10.88;;;17.40;99.90;;;;;;5061536;28;20045;-75
2021/08/19 09:20:14;;;;;;;10.93;9.82;;;17.40;99.90;;;;;;5060777;28;20059;-75
2021/08/19 09:22:58;;;;;;;11.60;9.38;;;17.50;99.90;;;;;;5057324;28;20104;-71
2021/08/19 09:25:41;;;;;;;14.50;11.30;;;17.60;99.90;;;;;;5062348;28;20052;-72
2021/08/19 09:28:24;;;;;;;14.43;11.60;;;17.60;99.90;;;;;;5059380;28;20102;-72
2021/08/19 09:30:52;;;;;;;15.73;11.75;;;17.60;99.90;;;;;;5071459;28;20101;-72
2021/08/19 09:33:30;;;;;;;17.13;11.70;;;17.60;99.90;;;;;;5077285;28;20134;-73
2021/08/19 09:35:59;;;;;;;16.90;13.02;;;17.60;99.90;;;;;;5085534;28;20139;-74
2021/08/19 09:38:34;;;;;;;17.95;12.55;;;17.60;99.90;;;;;;5078709;28;20658;-75
2021/08/19 09:41:11;;;;;;;19.50;12.45;;;17.70;99.90;;;;;;5083791;28;20093;-73
2021/08/19 09:43:41;;;;;;;16.77;12.60;;;17.70;99.90;;;;;;5076695;28;20047;-72
2021/08/19 09:46:11;;;;;;;18.70;13.80;;;17.80;99.90;;;;;;5055789;28;20045;-70
2021/08/19 09:48:37;;;;;;;20.92;13.45;;;17.80;99.90;;;;;;5077182;28;20047;-67
2021/08/19 09:51:21;;;;;;;21.13;13.45;;;17.90;99.90;;;;;;5081662;28;20052;-70
2021/08/19 09:53:50;;;;;;;21.48;14.68;;;17.90;99.90;;;;;;5068681;28;20044;-68
2021/08/19 09:56:30;;;;;;;18.43;13.43;;;17.90;99.90;;;;;;5094762;28;20360;-68
2021/08/19 09:59:18;;;;;;;21.80;15.05;;;18.00;99.90;;;;;;5071786;28;20112;-68
2021/08/19 10:01:45;;;;;;;23.33;16.00;;;18.00;99.90;;;;;;5071942;28;20098;-68
2021/08/19 10:04:12;;;;;;;23.13;16.75;;;18.20;99.90;;;;;;5051852;28;20131;-68
2021/08/19 10:06:38;;;;;;;21.25;15.57;;;18.30;99.90;;;;;;5074133;28;20052;-68
2021/08/19 10:09:03;;;;;;;22.45;14.70;;;18.30;99.90;;;;;;5066521;28;20508;-68
2021/08/19 10:11:35;;;;;;;22.25;15.55;;;18.40;99.90;;;;;;5061343;28;20072;-69
2021/08/19 10:14:04;;;;;;;22.00;14.95;;;18.30;99.90;;;;;;5051670;28;20077;-70
2021/08/19 10:16:36;;;;;;;19.92;14.02;;;18.30;99.90;;;;;;5059328;28;20075;-70
2021/08/19 10:19:17;;;;;;;22.80;17.35;;;18.20;99.90;;;;;;5064978;28;20044;-68
2021/08/19 10:21:47;;;;;;;25.60;16.42;;;18.00;99.90;;;;;;5088794;28;20040;-72
2021/08/19 10:24:14;;;;;;;22.13;16.75;;;17.90;99.90;;;;;;5071959;28;20191;-73
2021/08/19 10:26:40;;;;;;;19.73;14.75;;;18.00;99.90;;;;;;5075566;28;20044;-73
2021/08/19 10:29:05;;;;;;;28.20;16.77;;;18.20;99.90;;;;;;5070176;28;20150;-73
2021/08/19 10:31:43;;;;;;;23.10;16.75;;;18.50;99.90;;;;;;5083753;28;20043;-73
2021/08/19 10:34:12;;;;;;;21.17;16.88;;;18.60;99.90;;;;;;5061119;28;20067;-73
2021/08/19 10:36:48;;;;;;;23.27;16.00;;;18.90;99.90;;;;;;5083073;28;20067;-73
2021/08/19 10:39:20;;;;;;;20.13;15.43;;;19.10;99.90;;;;;;5069548;28;20071;-73
2021/08/19 10:41:51;;;;;;;22.40;14.88;;;18.90;99.90;;;;;;5088339;28;20148;-73
2021/08/19 10:44:18;;;;;;;22.48;15.40;;;18.90;99.90;;;;;;5063172;28;20055;-73
2021/08/19 10:46:52;;;;;;;22.15;15.45;;;18.60;99.90;;;;;;5085343;28;20040;-70
2021/08/19 10:49:32;;;;;;;22.80;14.88;;;18.40;99.90;;;;;;5066914;28;20052;-70
2021/08/19 10:52:07;;;;;;;21.27;14.90;;;18.20;99.90;;;;;;5084057;28;20040;-69
2021/08/19 10:54:34;;;;;;;18.27;13.73;;;18.20;99.90;;;;;;5065814;28;20079;-70
2021/08/19 10:57:32;;;;;;;20.15;15.00;;;18.10;99.90;;;;;;5053962;28;20063;-70
2021/08/19 11:00:02;;;;;;;23.02;14.20;;;18.00;99.90;;;;;;5072232;28;20056;-71
2021/08/19 11:02:47;;;;;;;18.58;13.15;;;17.90;99.90;;;;;;5077615;28;20539;-71
2021/08/19 11:05:20;;;;;;;21.05;13.65;;;17.90;99.90;;;;;;5075995;28;20048;-71
2021/08/19 11:07:50;;;;;;;17.85;14.13;;;18.10;99.90;;;;;;5081129;28;20092;-71
2021/08/19 11:10:31;;;;;;;16.55;12.57;;;18.40;99.90;;;;;;5069416;28;20117;-71
2021/08/19 11:13:04;;;;;;;18.70;12.35;;;18.60;99.90;;;;;;5081071;28;20049;-72
2021/08/19 11:15:30;;;;;;;15.48;12.23;;;18.80;99.90;;;;;;5065314;28;20813;-72
2021/08/19 11:17:59;;;;;;;17.50;11.45;;;18.80;99.90;;;;;;5085154;28;20070;-71
2021/08/19 11:20:33;;;;;;;14.75;10.13;;;18.70;99.90;;;;;;5075243;28;20052;-72
2021/08/19 11:23:00;;;;;;;15.73;11.02;;;18.50;99.90;;;;;;5083011;28;20530;-73
2021/08/19 11:25:27;;;;;;;13.95;9.48;;;18.50;99.90;;;;;;5072789;28;20056;-72
2021/08/19 11:27:54;;;;;;;14.45;9.60;;;18.40;99.90;;;;;;5077876;28;20842;-72
2021/08/19 11:30:31;;;;;;;12.88;9.40;;;18.40;99.90;;;;;;5080754;28;20080;-72
2021/08/19 11:33:13;;;;;;;11.60;8.73;;;18.40;99.90;;;;;;5081715;28;20092;-77
2021/08/19 11:35:41;;;;;;;11.55;8.32;;;18.20;99.90;;;;;;5079462;28;20047;-72
2021/08/19 11:38:13;;;;;;;10.55;7.40;;;18.20;99.90;;;;;;5083397;28;20051;-72
2021/08/19 11:40:40;;;;;;;4.78;4.20;;;18.10;99.90;;;;;;5081814;28;20051;-72
2021/08/19 11:43:25;;;;;;;4.25;3.85;;;18.10;99.90;;;;;;5043476;28;20049;-72
2021/08/19 11:46:08;;;;;;;4.22;3.78;;;18.00;99.90;;;;;;5073918;28;20078;-72
2021/08/19 11:49:08;;;;;;;4.93;4.38;;;17.90;99.90;;;;;;5081320;28;20070;-72
2021/08/19 11:51:37;;;;;;;4.40;3.95;;;17.80;99.90;;;;;;5059501;28;20173;-72
2021/08/19 11:54:12;;;;;;;5.43;4.20;;;17.80;99.90;;;;;;5079743;28;20531;-71
2021/08/19 11:56:43;;;;;;;3.90;3.50;;;17.80;99.90;;;;;;5088077;28;20067;-72
2021/08/19 11:59:11;;;;;;;5.32;3.95;;;17.80;99.90;;;;;;5099992;28;20044;-72
2021/08/19 12:01:53;;;;;;;4.22;3.30;;;17.80;99.90;;;;;;5090143;28;20423;-72
2021/08/19 12:04:35;;;;;;;4.78;3.80;;;17.70;99.90;;;;;;5091558;28;20993;-73
2021/08/19 12:07:03;;;;;;;4.25;3.53;;;17.70;99.90;;;;;;5112445;28;20596;-72
2021/08/19 12:09:34;;;;;;;4.13;3.72;;;17.60;99.90;;;;;;5091490;28;20044;-72
2021/08/19 12:12:04;;;;;;;4.82;4.07;;;17.60;99.90;;;;;;5114608;28;20613;-72
2021/08/19 12:14:31;;;;;;;7.28;4.63;;;17.50;99.90;;;;;;5054922;28;20071;-72
2021/08/19 12:16:57;;;;;;;7.50;4.82;;;17.40;99.90;;;;;;5075752;28;20059;-72
2021/08/19 12:19:25;;;;;;;4.70;4.30;;;17.30;99.90;;;;;;5074145;28;20045;-72
2021/08/19 12:21:53;;;;;;;6.32;5.22;;;17.20;99.90;;;;;;5110160;28;20083;-72
2021/08/19 12:24:22;;;;;;;6.05;4.45;;;17.20;99.90;;;;;;5069558;28;20135;-73
2021/08/19 12:27:16;;;;;;;4.90;4.32;;;17.20;99.90;;;;;;5110001;28;20136;-72
2021/08/19 12:29:48;;;;;;;6.20;5.00;;;17.30;99.90;;;;;;5075753;28;20091;-72
2021/08/19 12:32:35;;;;;;;4.55;3.70;;;17.40;99.90;;;;;;5108449;28;20044;-72
2021/08/19 12:35:02;;;;;;;6.78;4.63;;;17.40;99.90;;;;;;5076057;28;20076;-72
2021/08/19 12:37:29;;;;;;;5.07;4.40;;;17.60;99.90;;;;;;5091671;28;20052;-72
2021/08/19 12:39:56;;;;;;;5.55;3.97;;;17.60;99.90;;;;;;5075077;28;20059;-72
2021/08/19 12:42:32;;;;;;;5.07;4.57;;;17.60;99.90;;;;;;5087194;28;20049;-72